SVA168 EDDF-OEJN
Flight info
| Callsign | SVA168 |
|---|---|
| Flight time | 4h 56m |
| Altitude | 35000 |
| Route | CINDY8S/18 CINDY Z74 LAMPU DCT NOMBO Y161 MAH DCT VAVOR DCT RADIZ DCT GORPA DCT PETAK DCT DIMIS UL604 TRL/N0481F370 UL604 SALUN N705 MMA L613 KIVIL N710 TAKRI P751 LXR M999 MUVOL |
| Aircraft | B77W/H-SDE1E2E3FGHIJ2J3J4J5M1RWXYZ/LB1D1 |
Departure
| Time | 2026-05-06 13:21 |
|---|---|
| Airport | Frankfurt Main Airport (EDDF) |
Arrival
| Time | 2026-05-06 18:18 |
|---|---|
| Airport | King Abdulaziz International Airport (OEJN) |
| Time | Latitude | Longitude | Altitude | Speed | Heading |
|---|---|---|---|---|---|
| 2026-05-06 12:42 | 50.03061 | 8.57331 | 361 ft | 0 kts | 25° |
| 2026-05-06 13:01 | 50.03046 | 8.57320 | 361 ft | 4 kts | 24° |
| 2026-05-06 13:02 | 50.03022 | 8.57303 | 361 ft | 4 kts | 25° |
| 2026-05-06 13:02 | 50.03002 | 8.57289 | 360 ft | 4 kts | 34° |
| 2026-05-06 13:02 | 50.02986 | 8.57260 | 362 ft | 4 kts | 80° |
| 2026-05-06 13:02 | 50.02988 | 8.57223 | 358 ft | 3 kts | 115° |
| 2026-05-06 13:03 | 50.02983 | 8.57241 | 363 ft | 4 kts | 115° |
| 2026-05-06 13:03 | 50.02971 | 8.57278 | 364 ft | 4 kts | 115° |
| 2026-05-06 13:03 | 50.02969 | 8.57285 | 358 ft | 1 kts | 115° |
| 2026-05-06 13:06 | 50.02957 | 8.57327 | 358 ft | 10 kts | 115° |
| 2026-05-06 13:06 | 50.02928 | 8.57418 | 357 ft | 9 kts | 127° |
| 2026-05-06 13:07 | 50.02870 | 8.57433 | 357 ft | 9 kts | 211° |
| 2026-05-06 13:07 | 50.02832 | 8.57339 | 360 ft | 11 kts | 247° |
| 2026-05-06 13:07 | 50.02801 | 8.57215 | 358 ft | 13 kts | 250° |
| 2026-05-06 13:07 | 50.02830 | 8.57092 | 356 ft | 14 kts | 330° |
| 2026-05-06 13:08 | 50.02918 | 8.57037 | 357 ft | 14 kts | 339° |
| 2026-05-06 13:08 | 50.03010 | 8.56984 | 357 ft | 14 kts | 340° |
| 2026-05-06 13:08 | 50.03103 | 8.56930 | 358 ft | 14 kts | 339° |
| 2026-05-06 13:08 | 50.03196 | 8.56876 | 358 ft | 14 kts | 340° |
| 2026-05-06 13:09 | 50.03265 | 8.56785 | 357 ft | 14 kts | 275° |
| 2026-05-06 13:09 | 50.03238 | 8.56633 | 353 ft | 15 kts | 250° |
| 2026-05-06 13:09 | 50.03202 | 8.56480 | 357 ft | 15 kts | 250° |
| 2026-05-06 13:09 | 50.03166 | 8.56327 | 354 ft | 15 kts | 250° |
| 2026-05-06 13:10 | 50.03130 | 8.56177 | 351 ft | 15 kts | 249° |
| 2026-05-06 13:10 | 50.03096 | 8.56034 | 349 ft | 14 kts | 249° |
| 2026-05-06 13:10 | 50.03062 | 8.55894 | 353 ft | 14 kts | 249° |
| 2026-05-06 13:10 | 50.03028 | 8.55753 | 350 ft | 14 kts | 249° |
| 2026-05-06 13:11 | 50.02995 | 8.55616 | 349 ft | 13 kts | 249° |
| 2026-05-06 13:11 | 50.02963 | 8.55484 | 348 ft | 13 kts | 250° |
| 2026-05-06 13:11 | 50.02932 | 8.55353 | 354 ft | 13 kts | 250° |
| 2026-05-06 13:11 | 50.02900 | 8.55218 | 353 ft | 14 kts | 250° |
| 2026-05-06 13:12 | 50.02862 | 8.55058 | 347 ft | 17 kts | 249° |
| 2026-05-06 13:12 | 50.02821 | 8.54888 | 348 ft | 17 kts | 249° |
| 2026-05-06 13:12 | 50.02780 | 8.54718 | 356 ft | 17 kts | 250° |
| 2026-05-06 13:12 | 50.02740 | 8.54547 | 346 ft | 17 kts | 250° |
| 2026-05-06 13:13 | 50.02699 | 8.54377 | 354 ft | 17 kts | 250° |
| 2026-05-06 13:13 | 50.02667 | 8.54202 | 356 ft | 17 kts | 254° |
| 2026-05-06 13:13 | 50.02627 | 8.54031 | 336 ft | 17 kts | 249° |
| 2026-05-06 13:13 | 50.02586 | 8.53861 | 335 ft | 17 kts | 249° |
| 2026-05-06 13:14 | 50.02545 | 8.53691 | 336 ft | 17 kts | 249° |
| 2026-05-06 13:14 | 50.02504 | 8.53521 | 351 ft | 17 kts | 249° |
| 2026-05-06 13:14 | 50.02464 | 8.53351 | 353 ft | 17 kts | 250° |
| 2026-05-06 13:14 | 50.02424 | 8.53181 | 336 ft | 17 kts | 250° |
| 2026-05-06 13:15 | 50.02409 | 8.53015 | 340 ft | 14 kts | 285° |
| 2026-05-06 13:15 | 50.02426 | 8.52966 | 339 ft | 0 kts | 304° |
| 2026-05-06 13:18 | 50.02457 | 8.52900 | 334 ft | 15 kts | 309° |
| 2026-05-06 13:18 | 50.02546 | 8.52828 | 341 ft | 15 kts | 355° |
| 2026-05-06 13:18 | 50.02659 | 8.52825 | 339 ft | 18 kts | 359° |
| 2026-05-06 13:18 | 50.02799 | 8.52824 | 339 ft | 20 kts | 360° |
| 2026-05-06 13:19 | 50.02922 | 8.52804 | 337 ft | 14 kts | 330° |
| 2026-05-06 13:19 | 50.02941 | 8.52663 | 337 ft | 14 kts | 259° |
| 2026-05-06 13:19 | 50.02868 | 8.52601 | 339 ft | 11 kts | 179° |
| 2026-05-06 13:19 | 50.02857 | 8.52601 | 336 ft | 0 kts | 179° |
| 2026-05-06 13:20 | 50.02738 | 8.52601 | 339 ft | 48 kts | 180° |
| 2026-05-06 13:21 | 50.02132 | 8.52607 | 340 ft | 121 kts | 180° |
| 2026-05-06 13:21 | 50.01079 | 8.52617 | 338 ft | 178 kts | 180° |
| 2026-05-06 13:21 | 49.99792 | 8.52649 | 797 ft | 187 kts | 179° |
| 2026-05-06 13:21 | 49.98466 | 8.52711 | 1457 ft | 193 kts | 179° |
| 2026-05-06 13:22 | 49.97117 | 8.52760 | 2131 ft | 195 kts | 180° |
| 2026-05-06 13:22 | 49.95776 | 8.52784 | 2783 ft | 197 kts | 181° |
| 2026-05-06 13:22 | 49.94391 | 8.52992 | 3242 ft | 212 kts | 160° |
| 2026-05-06 13:22 | 49.93266 | 8.54572 | 3616 ft | 231 kts | 117° |
| 2026-05-06 13:23 | 49.92691 | 8.56951 | 4242 ft | 240 kts | 111° |
| 2026-05-06 13:23 | 49.92212 | 8.59450 | 4943 ft | 246 kts | 95° |
| 2026-05-06 13:23 | 49.92429 | 8.62186 | 5306 ft | 268 kts | 74° |
| 2026-05-06 13:23 | 49.92937 | 8.65018 | 6045 ft | 277 kts | 75° |
| 2026-05-06 13:24 | 49.93170 | 8.67986 | 6760 ft | 282 kts | 99° |
| 2026-05-06 13:24 | 49.92418 | 8.70762 | 7598 ft | 283 kts | 131° |
| 2026-05-06 13:24 | 49.90929 | 8.72721 | 8445 ft | 282 kts | 146° |
| 2026-05-06 13:24 | 49.89297 | 8.74497 | 9208 ft | 288 kts | 144° |
| 2026-05-06 13:25 | 49.87890 | 8.76704 | 9900 ft | 293 kts | 122° |
| 2026-05-06 13:25 | 49.86911 | 8.79554 | 10325 ft | 312 kts | 118° |
| 2026-05-06 13:25 | 49.85843 | 8.82649 | 10547 ft | 340 kts | 120° |
| 2026-05-06 13:25 | 49.84647 | 8.85978 | 10796 ft | 366 kts | 120° |
| 2026-05-06 13:26 | 49.83375 | 8.89479 | 11457 ft | 378 kts | 120° |
| 2026-05-06 13:26 | 49.82072 | 8.93065 | 12294 ft | 385 kts | 121° |
| 2026-05-06 13:26 | 49.80755 | 8.96686 | 13241 ft | 388 kts | 121° |
| 2026-05-06 13:26 | 49.79423 | 9.00350 | 14164 ft | 392 kts | 121° |
| 2026-05-06 13:27 | 49.78078 | 9.04038 | 15027 ft | 396 kts | 121° |
| 2026-05-06 13:27 | 49.76785 | 9.07838 | 15842 ft | 403 kts | 116° |
| 2026-05-06 13:27 | 49.75761 | 9.11902 | 16645 ft | 409 kts | 109° |
| 2026-05-06 13:27 | 49.74974 | 9.16130 | 17329 ft | 411 kts | 110° |
| 2026-05-06 13:28 | 49.73796 | 9.20181 | 17945 ft | 416 kts | 123° |
| 2026-05-06 13:28 | 49.72058 | 9.23766 | 18729 ft | 415 kts | 134° |
| 2026-05-06 13:28 | 49.70065 | 9.27018 | 19479 ft | 419 kts | 134° |
| 2026-05-06 13:28 | 49.68088 | 9.30375 | 20171 ft | 425 kts | 133° |
| 2026-05-06 13:29 | 49.66124 | 9.33810 | 20847 ft | 429 kts | 133° |
| 2026-05-06 13:29 | 49.64141 | 9.37287 | 21509 ft | 433 kts | 134° |
| 2026-05-06 13:29 | 49.61987 | 9.40562 | 22141 ft | 436 kts | 141° |
| 2026-05-06 13:29 | 49.59624 | 9.43421 | 22762 ft | 439 kts | 147° |
| 2026-05-06 13:30 | 49.57033 | 9.45912 | 23366 ft | 441 kts | 151° |
| 2026-05-06 13:30 | 49.54363 | 9.48301 | 23955 ft | 445 kts | 151° |
| 2026-05-06 13:30 | 49.51671 | 9.50717 | 24520 ft | 449 kts | 151° |
| 2026-05-06 13:30 | 49.48969 | 9.53160 | 25079 ft | 452 kts | 151° |
| 2026-05-06 13:31 | 49.46255 | 9.55630 | 25628 ft | 455 kts | 151° |
| 2026-05-06 13:31 | 49.43520 | 9.58129 | 26191 ft | 458 kts | 151° |
| 2026-05-06 13:31 | 49.40776 | 9.60636 | 26672 ft | 461 kts | 151° |
| 2026-05-06 13:31 | 49.38007 | 9.63158 | 27157 ft | 464 kts | 152° |
| 2026-05-06 13:32 | 49.35254 | 9.65809 | 27620 ft | 468 kts | 147° |
| 2026-05-06 13:32 | 49.32664 | 9.68852 | 28087 ft | 472 kts | 142° |
| 2026-05-06 13:32 | 49.30268 | 9.72312 | 28514 ft | 476 kts | 137° |
| 2026-05-06 13:32 | 49.27941 | 9.75949 | 28923 ft | 478 kts | 137° |
| 2026-05-06 13:33 | 49.25601 | 9.79586 | 29281 ft | 481 kts | 137° |
| 2026-05-06 13:33 | 49.23236 | 9.83232 | 29618 ft | 483 kts | 138° |
| 2026-05-06 13:33 | 49.20861 | 9.86869 | 29950 ft | 485 kts | 138° |
| 2026-05-06 13:33 | 49.18469 | 9.90513 | 30385 ft | 484 kts | 138° |
| 2026-05-06 13:34 | 49.16088 | 9.94132 | 30836 ft | 482 kts | 138° |
| 2026-05-06 13:34 | 49.13705 | 9.97745 | 31245 ft | 482 kts | 139° |
| 2026-05-06 13:34 | 49.11329 | 10.01343 | 31598 ft | 482 kts | 139° |
| 2026-05-06 13:34 | 49.08945 | 10.04951 | 31927 ft | 482 kts | 139° |
| 2026-05-06 13:35 | 49.06562 | 10.08552 | 32266 ft | 483 kts | 139° |
| 2026-05-06 13:35 | 49.04146 | 10.12105 | 32632 ft | 481 kts | 141° |
| 2026-05-06 13:35 | 49.01684 | 10.15551 | 32978 ft | 480 kts | 141° |
| 2026-05-06 13:35 | 48.99212 | 10.18970 | 33313 ft | 480 kts | 141° |
| 2026-05-06 13:36 | 48.96751 | 10.22405 | 33621 ft | 480 kts | 141° |
| 2026-05-06 13:36 | 48.94299 | 10.25855 | 33965 ft | 480 kts | 141° |
| 2026-05-06 13:36 | 48.91858 | 10.29301 | 34275 ft | 479 kts | 141° |
| 2026-05-06 13:36 | 48.89417 | 10.32744 | 34559 ft | 479 kts | 141° |
| 2026-05-06 13:37 | 48.86966 | 10.36192 | 34710 ft | 482 kts | 141° |
| 2026-05-06 13:37 | 48.82046 | 10.43198 | 34770 ft | 486 kts | 137° |
| 2026-05-06 13:38 | 48.77491 | 10.50617 | 34779 ft | 481 kts | 136° |
| 2026-05-06 13:38 | 48.72932 | 10.57998 | 34777 ft | 479 kts | 137° |
| 2026-05-06 13:39 | 48.68308 | 10.65236 | 34786 ft | 478 kts | 138° |
| 2026-05-06 13:39 | 48.63678 | 10.72486 | 34773 ft | 480 kts | 137° |
| 2026-05-06 13:40 | 48.59085 | 10.79840 | 34770 ft | 481 kts | 137° |
| 2026-05-06 13:40 | 48.54491 | 10.87194 | 34768 ft | 482 kts | 137° |
| 2026-05-06 13:41 | 48.49890 | 10.94558 | 34771 ft | 482 kts | 137° |
| 2026-05-06 13:41 | 48.45246 | 11.01863 | 34774 ft | 482 kts | 138° |
| 2026-05-06 13:42 | 48.40577 | 11.09101 | 34776 ft | 482 kts | 138° |
| 2026-05-06 13:42 | 48.35902 | 11.16345 | 34771 ft | 482 kts | 138° |
| 2026-05-06 13:43 | 48.31226 | 11.23591 | 34767 ft | 483 kts | 138° |
| 2026-05-06 13:43 | 48.26675 | 11.31016 | 34775 ft | 487 kts | 132° |
| 2026-05-06 13:44 | 48.22951 | 11.39583 | 34781 ft | 492 kts | 123° |
| 2026-05-06 13:44 | 48.19579 | 11.48504 | 34768 ft | 492 kts | 123° |
| 2026-05-06 13:45 | 48.16173 | 11.57409 | 34767 ft | 492 kts | 124° |
| 2026-05-06 13:45 | 48.11016 | 11.70683 | 34758 ft | 492 kts | 124° |
| 2026-05-06 13:46 | 48.07566 | 11.79506 | 34757 ft | 491 kts | 124° |
| 2026-05-06 13:46 | 48.04118 | 11.88314 | 34758 ft | 491 kts | 124° |
| 2026-05-06 13:47 | 48.00659 | 11.97115 | 34754 ft | 491 kts | 124° |
| 2026-05-06 13:47 | 47.97195 | 12.05908 | 34753 ft | 491 kts | 124° |
| 2026-05-06 13:48 | 47.93428 | 12.14347 | 34748 ft | 485 kts | 134° |
| 2026-05-06 13:48 | 47.88754 | 12.21493 | 34745 ft | 479 kts | 144° |
| 2026-05-06 13:49 | 47.83620 | 12.27804 | 34740 ft | 479 kts | 144° |
| 2026-05-06 13:49 | 47.78532 | 12.34090 | 34745 ft | 479 kts | 144° |
| 2026-05-06 13:50 | 47.73387 | 12.40492 | 34753 ft | 480 kts | 144° |
| 2026-05-06 13:50 | 47.68307 | 12.46826 | 34740 ft | 480 kts | 144° |
| 2026-05-06 13:51 | 47.63184 | 12.53200 | 34746 ft | 481 kts | 142° |
| 2026-05-06 13:51 | 47.58468 | 12.60321 | 34766 ft | 485 kts | 136° |
| 2026-05-06 13:52 | 47.53905 | 12.67704 | 34747 ft | 486 kts | 136° |
| 2026-05-06 13:52 | 47.49327 | 12.75053 | 34754 ft | 486 kts | 136° |
| 2026-05-06 13:53 | 47.44719 | 12.82381 | 34757 ft | 486 kts | 137° |
| 2026-05-06 13:53 | 47.40102 | 12.89692 | 34752 ft | 486 kts | 137° |
| 2026-05-06 13:54 | 47.35484 | 12.96973 | 34765 ft | 486 kts | 137° |
| 2026-05-06 13:54 | 47.30868 | 13.04237 | 34780 ft | 484 kts | 137° |
| 2026-05-06 13:55 | 47.26244 | 13.11495 | 34788 ft | 486 kts | 137° |
| 2026-05-06 13:55 | 47.21610 | 13.18751 | 34787 ft | 487 kts | 137° |
| 2026-05-06 13:56 | 47.16969 | 13.25997 | 34815 ft | 487 kts | 137° |
| 2026-05-06 13:56 | 47.12315 | 13.33242 | 34805 ft | 488 kts | 137° |
| 2026-05-06 13:57 | 47.07685 | 13.40431 | 34797 ft | 487 kts | 137° |
| 2026-05-06 13:57 | 47.02999 | 13.47685 | 34840 ft | 486 kts | 137° |
| 2026-05-06 13:58 | 46.99125 | 13.53672 | 34834 ft | 487 kts | 137° |
| 2026-05-06 13:58 | 46.94458 | 13.60860 | 34843 ft | 487 kts | 137° |
| 2026-05-06 13:59 | 46.89020 | 13.69216 | 34851 ft | 488 kts | 137° |
| 2026-05-06 13:59 | 46.85099 | 13.75224 | 34859 ft | 487 kts | 137° |
| 2026-05-06 14:00 | 46.80415 | 13.82378 | 34876 ft | 487 kts | 137° |
| 2026-05-06 14:00 | 46.75727 | 13.89528 | 34870 ft | 487 kts | 137° |
| 2026-05-06 14:01 | 46.71045 | 13.96648 | 34886 ft | 487 kts | 137° |
| 2026-05-06 14:01 | 46.66378 | 14.03720 | 34876 ft | 487 kts | 137° |
| 2026-05-06 14:02 | 46.61685 | 14.10815 | 34887 ft | 487 kts | 137° |
| 2026-05-06 14:02 | 46.56977 | 14.17918 | 34887 ft | 487 kts | 137° |
| 2026-05-06 14:03 | 46.52269 | 14.25000 | 34889 ft | 487 kts | 137° |
| 2026-05-06 14:03 | 46.47553 | 14.32076 | 34900 ft | 487 kts | 137° |
| 2026-05-06 14:04 | 46.42829 | 14.39141 | 34904 ft | 488 kts | 137° |
| 2026-05-06 14:04 | 46.38100 | 14.46197 | 34915 ft | 488 kts | 137° |
| 2026-05-06 14:05 | 46.33370 | 14.53236 | 34930 ft | 488 kts | 137° |
| 2026-05-06 14:05 | 46.28636 | 14.60262 | 34930 ft | 487 kts | 137° |
| 2026-05-06 14:06 | 46.23898 | 14.67276 | 34930 ft | 487 kts | 137° |
| 2026-05-06 14:06 | 46.19160 | 14.74271 | 34933 ft | 487 kts | 137° |
| 2026-05-06 14:07 | 46.14422 | 14.81248 | 34932 ft | 487 kts | 137° |
| 2026-05-06 14:07 | 46.09669 | 14.88229 | 34935 ft | 488 kts | 137° |
| 2026-05-06 14:08 | 46.04938 | 14.95159 | 34938 ft | 488 kts | 137° |
| 2026-05-06 14:08 | 46.00172 | 15.02122 | 34947 ft | 488 kts | 137° |
| 2026-05-06 14:09 | 45.95404 | 15.09070 | 34945 ft | 488 kts | 137° |
| 2026-05-06 14:09 | 45.90630 | 15.16013 | 34946 ft | 488 kts | 137° |
| 2026-05-06 14:10 | 45.85854 | 15.22936 | 34941 ft | 488 kts | 137° |
| 2026-05-06 14:10 | 45.81075 | 15.29851 | 34944 ft | 488 kts | 137° |
| 2026-05-06 14:11 | 45.76235 | 15.36553 | 34931 ft | 486 kts | 143° |
| 2026-05-06 14:11 | 45.71248 | 15.41953 | 34933 ft | 485 kts | 146° |
| 2026-05-06 14:12 | 45.65961 | 15.47539 | 34931 ft | 485 kts | 146° |
| 2026-05-06 14:12 | 45.60548 | 15.53293 | 34916 ft | 485 kts | 146° |
| 2026-05-06 14:13 | 45.55138 | 15.59070 | 34917 ft | 486 kts | 146° |
| 2026-05-06 14:13 | 45.49690 | 15.64885 | 34916 ft | 486 kts | 146° |
| 2026-05-06 14:14 | 45.44323 | 15.70597 | 34918 ft | 486 kts | 146° |
| 2026-05-06 14:14 | 45.38903 | 15.76356 | 34919 ft | 486 kts | 146° |
| 2026-05-06 14:15 | 45.33470 | 15.82110 | 34914 ft | 486 kts | 146° |
| 2026-05-06 14:15 | 45.28043 | 15.87844 | 34919 ft | 486 kts | 146° |
| 2026-05-06 14:16 | 45.22614 | 15.93564 | 34916 ft | 486 kts | 146° |
| 2026-05-06 14:16 | 45.17185 | 15.99272 | 34916 ft | 486 kts | 146° |
| 2026-05-06 14:17 | 45.11753 | 16.04970 | 34916 ft | 485 kts | 146° |
| 2026-05-06 14:17 | 45.06320 | 16.10655 | 34934 ft | 486 kts | 146° |
| 2026-05-06 14:18 | 45.00876 | 16.16337 | 34929 ft | 486 kts | 146° |
| 2026-05-06 14:18 | 44.95423 | 16.22012 | 34921 ft | 487 kts | 146° |
| 2026-05-06 14:19 | 44.89963 | 16.27681 | 34927 ft | 487 kts | 146° |
| 2026-05-06 14:19 | 44.84507 | 16.33335 | 34941 ft | 487 kts | 146° |
| 2026-05-06 14:20 | 44.79045 | 16.38981 | 34950 ft | 488 kts | 146° |
| 2026-05-06 14:20 | 44.73605 | 16.44595 | 34939 ft | 488 kts | 146° |
| 2026-05-06 14:21 | 44.68127 | 16.50229 | 34942 ft | 488 kts | 146° |
| 2026-05-06 14:21 | 44.62645 | 16.55855 | 34952 ft | 488 kts | 146° |
| 2026-05-06 14:22 | 44.57158 | 16.61471 | 34934 ft | 488 kts | 146° |
| 2026-05-06 14:22 | 44.51662 | 16.67087 | 34952 ft | 488 kts | 146° |
| 2026-05-06 14:23 | 44.46172 | 16.72682 | 34952 ft | 488 kts | 146° |
| 2026-05-06 14:23 | 44.40674 | 16.78270 | 34950 ft | 488 kts | 146° |
| 2026-05-06 14:24 | 44.35181 | 16.83839 | 34953 ft | 487 kts | 146° |
| 2026-05-06 14:24 | 44.29724 | 16.89360 | 34961 ft | 487 kts | 146° |
| 2026-05-06 14:25 | 44.24230 | 16.94905 | 34964 ft | 487 kts | 146° |
| 2026-05-06 14:25 | 44.18736 | 17.00438 | 34968 ft | 487 kts | 146° |
| 2026-05-06 14:26 | 44.13243 | 17.05957 | 34983 ft | 487 kts | 146° |
| 2026-05-06 14:26 | 44.07746 | 17.11466 | 35001 ft | 487 kts | 146° |
| 2026-05-06 14:27 | 44.02247 | 17.16966 | 35005 ft | 488 kts | 146° |
| 2026-05-06 14:27 | 43.96734 | 17.22461 | 35015 ft | 488 kts | 146° |
| 2026-05-06 14:28 | 43.91255 | 17.27916 | 35018 ft | 488 kts | 146° |
| 2026-05-06 14:28 | 43.85733 | 17.33401 | 35021 ft | 488 kts | 146° |
| 2026-05-06 14:29 | 43.80207 | 17.38876 | 35012 ft | 489 kts | 146° |
| 2026-05-06 14:29 | 43.74672 | 17.44345 | 35006 ft | 488 kts | 146° |
| 2026-05-06 14:30 | 43.69143 | 17.49796 | 35011 ft | 487 kts | 146° |
| 2026-05-06 14:30 | 43.63622 | 17.55230 | 35022 ft | 487 kts | 146° |
| 2026-05-06 14:31 | 43.58104 | 17.60646 | 35022 ft | 486 kts | 146° |
| 2026-05-06 14:31 | 43.52583 | 17.66050 | 35025 ft | 487 kts | 146° |
| 2026-05-06 14:32 | 43.47059 | 17.71447 | 35030 ft | 487 kts | 146° |
| 2026-05-06 14:32 | 43.41523 | 17.76844 | 35040 ft | 488 kts | 146° |
| 2026-05-06 14:33 | 43.35986 | 17.82227 | 35050 ft | 487 kts | 146° |
| 2026-05-06 14:33 | 43.30445 | 17.87606 | 35046 ft | 488 kts | 146° |
| 2026-05-06 14:34 | 43.24926 | 17.92952 | 35050 ft | 488 kts | 146° |
| 2026-05-06 14:34 | 43.19342 | 17.98346 | 35042 ft | 487 kts | 146° |
| 2026-05-06 14:35 | 43.13793 | 18.03694 | 35046 ft | 487 kts | 146° |
| 2026-05-06 14:35 | 43.08281 | 18.08997 | 35044 ft | 488 kts | 146° |
| 2026-05-06 14:36 | 43.02721 | 18.14328 | 35044 ft | 488 kts | 146° |
| 2026-05-06 14:36 | 42.97165 | 18.19648 | 35052 ft | 488 kts | 146° |
| 2026-05-06 14:37 | 42.91602 | 18.24962 | 35055 ft | 488 kts | 146° |
| 2026-05-06 14:37 | 42.86039 | 18.30264 | 35054 ft | 488 kts | 147° |
| 2026-05-06 14:38 | 42.80463 | 18.35568 | 35061 ft | 488 kts | 147° |
| 2026-05-06 14:38 | 42.74885 | 18.40854 | 35071 ft | 488 kts | 147° |
| 2026-05-06 14:39 | 42.69306 | 18.46135 | 35082 ft | 488 kts | 147° |
| 2026-05-06 14:39 | 42.63733 | 18.51400 | 35073 ft | 488 kts | 147° |
| 2026-05-06 14:40 | 42.58189 | 18.56624 | 35070 ft | 488 kts | 147° |
| 2026-05-06 14:40 | 42.52607 | 18.61873 | 35080 ft | 488 kts | 147° |
| 2026-05-06 14:41 | 42.47024 | 18.67115 | 35068 ft | 488 kts | 147° |
| 2026-05-06 14:41 | 42.41436 | 18.72345 | 35076 ft | 488 kts | 147° |
| 2026-05-06 14:42 | 42.35842 | 18.77568 | 35077 ft | 489 kts | 147° |
| 2026-05-06 14:42 | 42.30231 | 18.82798 | 35067 ft | 490 kts | 147° |
| 2026-05-06 14:43 | 42.25569 | 18.87137 | 35077 ft | 490 kts | 147° |
| 2026-05-06 14:43 | 42.19950 | 18.92350 | 35085 ft | 490 kts | 147° |
| 2026-05-06 14:44 | 42.14334 | 18.97553 | 35089 ft | 489 kts | 147° |
| 2026-05-06 14:45 | 42.05914 | 19.05334 | 35081 ft | 490 kts | 147° |
| 2026-05-06 14:45 | 42.00282 | 19.10521 | 35097 ft | 490 kts | 147° |
| 2026-05-06 14:46 | 41.94687 | 19.15665 | 35099 ft | 490 kts | 147° |
| 2026-05-06 14:46 | 41.89011 | 19.20871 | 35080 ft | 491 kts | 147° |
| 2026-05-06 14:47 | 41.83409 | 19.26002 | 35077 ft | 491 kts | 147° |
| 2026-05-06 14:47 | 41.77752 | 19.31161 | 35090 ft | 492 kts | 148° |
| 2026-05-06 14:48 | 41.71878 | 19.35845 | 35087 ft | 491 kts | 152° |
| 2026-05-06 14:48 | 41.65938 | 19.40379 | 35084 ft | 491 kts | 152° |
| 2026-05-06 14:49 | 41.60007 | 19.44918 | 35078 ft | 492 kts | 152° |
| 2026-05-06 14:49 | 41.54072 | 19.49481 | 35072 ft | 492 kts | 152° |
| 2026-05-06 14:50 | 41.48141 | 19.54039 | 35074 ft | 492 kts | 152° |
| 2026-05-06 14:50 | 41.42203 | 19.58595 | 35069 ft | 492 kts | 152° |
| 2026-05-06 14:51 | 41.36258 | 19.63144 | 35073 ft | 493 kts | 152° |
| 2026-05-06 14:51 | 41.30308 | 19.67684 | 35069 ft | 492 kts | 152° |
| 2026-05-06 14:52 | 41.24373 | 19.72203 | 35072 ft | 491 kts | 152° |
| 2026-05-06 14:52 | 41.18481 | 19.76685 | 35077 ft | 491 kts | 152° |
| 2026-05-06 14:53 | 41.12551 | 19.81182 | 35081 ft | 491 kts | 152° |
| 2026-05-06 14:53 | 41.06607 | 19.85686 | 35074 ft | 491 kts | 152° |
| 2026-05-06 14:54 | 41.00671 | 19.90168 | 35081 ft | 491 kts | 152° |
| 2026-05-06 14:54 | 40.94726 | 19.94647 | 35186 ft | 493 kts | 152° |
| 2026-05-06 14:54 | 40.91747 | 19.96889 | 35488 ft | 492 kts | 152° |
| 2026-05-06 14:55 | 40.88777 | 19.99123 | 35857 ft | 490 kts | 152° |
| 2026-05-06 14:55 | 40.85820 | 20.01346 | 36240 ft | 488 kts | 152° |
| 2026-05-06 14:55 | 40.82877 | 20.03556 | 36517 ft | 488 kts | 152° |
| 2026-05-06 14:55 | 40.79914 | 20.05776 | 36721 ft | 489 kts | 152° |
| 2026-05-06 14:56 | 40.76963 | 20.07983 | 37029 ft | 488 kts | 152° |
| 2026-05-06 14:56 | 40.71045 | 20.12405 | 37085 ft | 485 kts | 152° |
| 2026-05-06 14:57 | 40.65278 | 20.16711 | 37079 ft | 476 kts | 152° |
| 2026-05-06 14:57 | 40.59517 | 20.20998 | 37099 ft | 476 kts | 152° |
| 2026-05-06 14:58 | 40.53745 | 20.25287 | 37083 ft | 477 kts | 152° |
| 2026-05-06 14:58 | 40.47965 | 20.29579 | 37100 ft | 477 kts | 152° |
| 2026-05-06 14:59 | 40.42173 | 20.33862 | 37091 ft | 478 kts | 152° |
| 2026-05-06 14:59 | 40.36370 | 20.38146 | 37091 ft | 479 kts | 152° |
| 2026-05-06 15:00 | 40.30553 | 20.42438 | 37096 ft | 480 kts | 152° |
| 2026-05-06 15:00 | 40.24732 | 20.46721 | 37096 ft | 480 kts | 152° |
| 2026-05-06 15:01 | 40.18905 | 20.51000 | 37089 ft | 480 kts | 152° |
| 2026-05-06 15:01 | 40.13079 | 20.55271 | 37080 ft | 480 kts | 152° |
| 2026-05-06 15:02 | 40.07242 | 20.59522 | 37099 ft | 479 kts | 154° |
| 2026-05-06 15:02 | 40.01242 | 20.63263 | 37101 ft | 478 kts | 157° |
| 2026-05-06 15:03 | 39.95207 | 20.66873 | 37107 ft | 477 kts | 157° |
| 2026-05-06 15:03 | 39.89187 | 20.70500 | 37099 ft | 477 kts | 156° |
| 2026-05-06 15:04 | 39.83168 | 20.74146 | 37105 ft | 477 kts | 156° |
| 2026-05-06 15:04 | 39.77153 | 20.77783 | 37100 ft | 476 kts | 156° |
| 2026-05-06 15:05 | 39.71132 | 20.81416 | 37096 ft | 477 kts | 156° |
| 2026-05-06 15:05 | 39.65187 | 20.85214 | 37103 ft | 477 kts | 153° |
| 2026-05-06 15:06 | 39.59336 | 20.89303 | 37109 ft | 477 kts | 153° |
| 2026-05-06 15:06 | 39.53482 | 20.93387 | 37107 ft | 478 kts | 153° |
| 2026-05-06 15:07 | 39.47609 | 20.97420 | 37105 ft | 478 kts | 153° |
| 2026-05-06 15:07 | 39.41716 | 21.01431 | 37101 ft | 479 kts | 153° |
| 2026-05-06 15:08 | 39.35820 | 21.05437 | 37104 ft | 479 kts | 153° |
| 2026-05-06 15:08 | 39.29958 | 21.09411 | 37102 ft | 480 kts | 154° |
| 2026-05-06 15:09 | 39.24042 | 21.13417 | 37085 ft | 480 kts | 154° |
| 2026-05-06 15:09 | 39.18130 | 21.17412 | 37100 ft | 480 kts | 154° |
| 2026-05-06 15:10 | 39.12217 | 21.21397 | 37101 ft | 480 kts | 154° |
| 2026-05-06 15:10 | 39.06303 | 21.25380 | 37085 ft | 479 kts | 154° |
| 2026-05-06 15:11 | 39.00399 | 21.29351 | 37083 ft | 479 kts | 154° |
| 2026-05-06 15:11 | 38.94491 | 21.33313 | 37098 ft | 479 kts | 154° |
| 2026-05-06 15:12 | 38.88572 | 21.37275 | 37103 ft | 479 kts | 154° |
| 2026-05-06 15:12 | 38.82657 | 21.41228 | 37076 ft | 479 kts | 154° |
| 2026-05-06 15:13 | 38.76745 | 21.45172 | 37074 ft | 479 kts | 154° |
| 2026-05-06 15:13 | 38.70829 | 21.49111 | 37077 ft | 479 kts | 154° |
| 2026-05-06 15:14 | 38.64906 | 21.53040 | 37074 ft | 480 kts | 154° |
| 2026-05-06 15:14 | 38.58979 | 21.56962 | 37071 ft | 479 kts | 154° |
| 2026-05-06 15:15 | 38.53059 | 21.60872 | 37081 ft | 479 kts | 154° |
| 2026-05-06 15:15 | 38.47137 | 21.64781 | 37078 ft | 479 kts | 154° |
| 2026-05-06 15:16 | 38.41211 | 21.68684 | 37073 ft | 480 kts | 154° |
| 2026-05-06 15:16 | 38.35278 | 21.72583 | 37075 ft | 479 kts | 154° |
| 2026-05-06 15:17 | 38.29346 | 21.76478 | 37073 ft | 480 kts | 154° |
| 2026-05-06 15:17 | 38.23415 | 21.80361 | 37077 ft | 480 kts | 154° |
| 2026-05-06 15:18 | 38.17512 | 21.84221 | 37074 ft | 480 kts | 154° |
| 2026-05-06 15:18 | 38.11563 | 21.88103 | 37075 ft | 481 kts | 154° |
| 2026-05-06 15:19 | 38.05610 | 21.91980 | 37083 ft | 480 kts | 154° |
| 2026-05-06 15:19 | 37.99657 | 21.95852 | 37079 ft | 480 kts | 154° |
| 2026-05-06 15:20 | 37.93709 | 21.99709 | 37082 ft | 480 kts | 154° |
| 2026-05-06 15:20 | 37.87742 | 22.03573 | 37071 ft | 481 kts | 154° |
| 2026-05-06 15:21 | 37.81793 | 22.07422 | 37075 ft | 480 kts | 154° |
| 2026-05-06 15:21 | 37.75871 | 22.11247 | 37072 ft | 480 kts | 154° |
| 2026-05-06 15:22 | 37.69913 | 22.15085 | 37074 ft | 481 kts | 154° |
| 2026-05-06 15:22 | 37.63955 | 22.18916 | 37074 ft | 480 kts | 154° |
| 2026-05-06 15:23 | 37.57996 | 22.22739 | 37071 ft | 481 kts | 154° |
| 2026-05-06 15:23 | 37.52034 | 22.26562 | 37073 ft | 481 kts | 154° |
| 2026-05-06 15:24 | 37.46065 | 22.30380 | 37071 ft | 481 kts | 154° |
| 2026-05-06 15:24 | 37.40105 | 22.34187 | 37077 ft | 481 kts | 154° |
| 2026-05-06 15:25 | 37.34128 | 22.37982 | 37073 ft | 481 kts | 154° |
| 2026-05-06 15:25 | 37.28144 | 22.41770 | 37074 ft | 481 kts | 154° |
| 2026-05-06 15:26 | 37.22162 | 22.45551 | 37073 ft | 481 kts | 154° |
| 2026-05-06 15:26 | 37.17191 | 22.48688 | 37080 ft | 481 kts | 154° |
| 2026-05-06 15:27 | 37.11209 | 22.52459 | 37071 ft | 481 kts | 154° |
| 2026-05-06 15:27 | 37.05228 | 22.56224 | 37079 ft | 481 kts | 154° |
| 2026-05-06 15:28 | 36.99233 | 22.59991 | 37068 ft | 481 kts | 154° |
| 2026-05-06 15:28 | 36.93249 | 22.63743 | 37076 ft | 481 kts | 154° |
| 2026-05-06 15:29 | 36.87257 | 22.67494 | 37074 ft | 481 kts | 154° |
| 2026-05-06 15:29 | 36.81266 | 22.71238 | 37075 ft | 481 kts | 154° |
| 2026-05-06 15:30 | 36.75270 | 22.74977 | 37073 ft | 481 kts | 154° |
| 2026-05-06 15:30 | 36.69277 | 22.78709 | 37074 ft | 482 kts | 154° |
| 2026-05-06 15:31 | 36.63321 | 22.82411 | 37073 ft | 481 kts | 154° |
| 2026-05-06 15:31 | 36.57315 | 22.86141 | 37075 ft | 482 kts | 154° |
| 2026-05-06 15:32 | 36.48311 | 22.91714 | 37074 ft | 482 kts | 154° |
| 2026-05-06 15:32 | 36.42299 | 22.95428 | 37074 ft | 482 kts | 154° |
| 2026-05-06 15:33 | 36.36286 | 22.99137 | 37075 ft | 482 kts | 154° |
| 2026-05-06 15:33 | 36.30283 | 23.02834 | 37073 ft | 482 kts | 155° |
| 2026-05-06 15:34 | 36.24276 | 23.06526 | 37076 ft | 482 kts | 154° |
| 2026-05-06 15:34 | 36.18297 | 23.10197 | 37074 ft | 482 kts | 154° |
| 2026-05-06 15:35 | 36.12285 | 23.13879 | 37075 ft | 482 kts | 155° |
| 2026-05-06 15:35 | 36.06262 | 23.17567 | 37074 ft | 483 kts | 155° |
| 2026-05-06 15:36 | 36.00227 | 23.21257 | 37072 ft | 483 kts | 155° |
| 2026-05-06 15:36 | 35.94240 | 23.24917 | 37075 ft | 483 kts | 155° |
| 2026-05-06 15:37 | 35.88218 | 23.28592 | 37076 ft | 483 kts | 155° |
| 2026-05-06 15:37 | 35.82189 | 23.32261 | 37078 ft | 484 kts | 155° |
| 2026-05-06 15:38 | 35.76151 | 23.35928 | 37070 ft | 484 kts | 155° |
| 2026-05-06 15:38 | 35.70115 | 23.39594 | 37075 ft | 483 kts | 155° |
| 2026-05-06 15:39 | 35.64082 | 23.43251 | 37073 ft | 483 kts | 155° |
| 2026-05-06 15:39 | 35.58070 | 23.46889 | 37074 ft | 483 kts | 155° |
| 2026-05-06 15:40 | 35.52043 | 23.50529 | 37075 ft | 483 kts | 155° |
| 2026-05-06 15:40 | 35.46009 | 23.54164 | 37085 ft | 482 kts | 155° |
| 2026-05-06 15:41 | 35.39985 | 23.57789 | 37098 ft | 482 kts | 155° |
| 2026-05-06 15:41 | 35.33955 | 23.61411 | 37082 ft | 483 kts | 155° |
| 2026-05-06 15:42 | 35.27921 | 23.65030 | 37079 ft | 483 kts | 155° |
| 2026-05-06 15:42 | 35.21887 | 23.68652 | 37080 ft | 483 kts | 154° |
| 2026-05-06 15:43 | 35.15909 | 23.72411 | 37074 ft | 484 kts | 153° |
| 2026-05-06 15:43 | 35.09945 | 23.76238 | 37073 ft | 483 kts | 153° |
| 2026-05-06 15:44 | 35.03986 | 23.80041 | 37074 ft | 483 kts | 153° |
| 2026-05-06 15:44 | 34.98020 | 23.83824 | 37074 ft | 483 kts | 154° |
| 2026-05-06 15:45 | 34.92054 | 23.87594 | 37074 ft | 482 kts | 153° |
| 2026-05-06 15:45 | 34.86094 | 23.91352 | 37073 ft | 482 kts | 154° |
| 2026-05-06 15:46 | 34.80137 | 23.95103 | 37075 ft | 482 kts | 154° |
| 2026-05-06 15:46 | 34.74179 | 23.98852 | 37073 ft | 482 kts | 154° |
| 2026-05-06 15:47 | 34.68226 | 24.02587 | 37075 ft | 482 kts | 154° |
| 2026-05-06 15:47 | 34.62270 | 24.06320 | 37073 ft | 482 kts | 154° |
| 2026-05-06 15:48 | 34.56311 | 24.10053 | 37076 ft | 482 kts | 154° |
| 2026-05-06 15:48 | 34.50330 | 24.13789 | 37074 ft | 483 kts | 154° |
| 2026-05-06 15:49 | 34.44357 | 24.17512 | 37078 ft | 483 kts | 154° |
| 2026-05-06 15:49 | 34.38423 | 24.21208 | 37097 ft | 482 kts | 154° |
| 2026-05-06 15:50 | 34.32451 | 24.24922 | 37084 ft | 482 kts | 154° |
| 2026-05-06 15:50 | 34.26479 | 24.28630 | 37085 ft | 482 kts | 154° |
| 2026-05-06 15:51 | 34.20507 | 24.32330 | 37096 ft | 482 kts | 154° |
| 2026-05-06 15:51 | 34.14539 | 24.36024 | 37096 ft | 482 kts | 154° |
| 2026-05-06 15:52 | 34.08577 | 24.39709 | 37099 ft | 481 kts | 154° |
| 2026-05-06 15:52 | 34.02621 | 24.43408 | 37083 ft | 481 kts | 151° |
| 2026-05-06 15:53 | 33.97098 | 24.47973 | 37081 ft | 483 kts | 140° |
| 2026-05-06 15:53 | 33.92105 | 24.53383 | 37080 ft | 483 kts | 138° |
| 2026-05-06 15:54 | 33.87119 | 24.58817 | 37097 ft | 483 kts | 139° |
| 2026-05-06 15:54 | 33.82111 | 24.64229 | 37094 ft | 484 kts | 139° |
| 2026-05-06 15:55 | 33.77084 | 24.69622 | 37083 ft | 484 kts | 139° |
| 2026-05-06 15:55 | 33.72054 | 24.74999 | 37083 ft | 484 kts | 139° |
| 2026-05-06 15:56 | 33.67050 | 24.80340 | 37084 ft | 485 kts | 139° |
| 2026-05-06 15:56 | 33.62006 | 24.85716 | 37102 ft | 485 kts | 139° |
| 2026-05-06 15:57 | 33.56952 | 24.91095 | 37101 ft | 486 kts | 139° |
| 2026-05-06 15:57 | 33.51890 | 24.96475 | 37084 ft | 486 kts | 139° |
| 2026-05-06 15:58 | 33.46827 | 25.01847 | 37084 ft | 486 kts | 139° |
| 2026-05-06 15:58 | 33.41760 | 25.07216 | 37102 ft | 486 kts | 139° |
| 2026-05-06 15:59 | 33.36694 | 25.12574 | 37099 ft | 486 kts | 139° |
| 2026-05-06 15:59 | 33.31624 | 25.17928 | 37083 ft | 486 kts | 139° |
| 2026-05-06 16:00 | 33.26548 | 25.23277 | 37104 ft | 486 kts | 139° |
| 2026-05-06 16:00 | 33.21472 | 25.28621 | 37095 ft | 486 kts | 139° |
| 2026-05-06 16:01 | 33.16393 | 25.33960 | 37103 ft | 486 kts | 140° |
| 2026-05-06 16:01 | 33.11310 | 25.39290 | 37103 ft | 486 kts | 140° |
| 2026-05-06 16:02 | 33.06234 | 25.44611 | 37104 ft | 486 kts | 140° |
| 2026-05-06 16:02 | 33.01184 | 25.49889 | 37104 ft | 486 kts | 140° |
| 2026-05-06 16:03 | 32.96103 | 25.55200 | 37098 ft | 486 kts | 140° |
| 2026-05-06 16:03 | 32.91010 | 25.60503 | 37106 ft | 486 kts | 140° |
| 2026-05-06 16:04 | 32.85913 | 25.65806 | 37101 ft | 486 kts | 140° |
| 2026-05-06 16:04 | 32.80819 | 25.71100 | 37100 ft | 486 kts | 140° |
| 2026-05-06 16:05 | 32.75721 | 25.76393 | 37104 ft | 487 kts | 140° |
| 2026-05-06 16:05 | 32.70621 | 25.81677 | 37112 ft | 487 kts | 140° |
| 2026-05-06 16:06 | 32.65518 | 25.86956 | 37112 ft | 487 kts | 140° |
| 2026-05-06 16:06 | 32.60404 | 25.92235 | 37114 ft | 487 kts | 140° |
| 2026-05-06 16:07 | 32.55288 | 25.97505 | 37112 ft | 487 kts | 140° |
| 2026-05-06 16:07 | 32.50210 | 26.02733 | 37111 ft | 487 kts | 140° |
| 2026-05-06 16:08 | 32.45094 | 26.07992 | 37110 ft | 487 kts | 140° |
| 2026-05-06 16:08 | 32.39980 | 26.13243 | 37114 ft | 487 kts | 140° |
| 2026-05-06 16:09 | 32.34862 | 26.18484 | 37120 ft | 486 kts | 140° |
| 2026-05-06 16:09 | 32.30607 | 26.22838 | 37119 ft | 487 kts | 140° |
| 2026-05-06 16:10 | 32.25455 | 26.28101 | 37120 ft | 487 kts | 140° |
| 2026-05-06 16:10 | 32.20332 | 26.33328 | 37120 ft | 486 kts | 140° |
| 2026-05-06 16:11 | 32.15233 | 26.38523 | 37121 ft | 486 kts | 140° |
| 2026-05-06 16:11 | 32.10109 | 26.43733 | 37119 ft | 486 kts | 140° |
| 2026-05-06 16:12 | 32.04978 | 26.48939 | 37123 ft | 487 kts | 141° |
| 2026-05-06 16:12 | 31.99847 | 26.54141 | 37124 ft | 487 kts | 141° |
| 2026-05-06 16:13 | 31.94715 | 26.59337 | 37130 ft | 486 kts | 141° |
| 2026-05-06 16:13 | 31.89583 | 26.64526 | 37129 ft | 487 kts | 141° |
| 2026-05-06 16:14 | 31.84433 | 26.69722 | 37131 ft | 487 kts | 141° |
| 2026-05-06 16:14 | 31.79291 | 26.74904 | 37129 ft | 487 kts | 141° |
| 2026-05-06 16:15 | 31.74143 | 26.80085 | 37130 ft | 487 kts | 141° |
| 2026-05-06 16:15 | 31.68993 | 26.85256 | 37129 ft | 487 kts | 141° |
| 2026-05-06 16:16 | 31.63836 | 26.90430 | 37127 ft | 488 kts | 141° |
| 2026-05-06 16:16 | 31.58709 | 26.95566 | 37132 ft | 488 kts | 141° |
| 2026-05-06 16:17 | 31.53541 | 27.00736 | 37129 ft | 488 kts | 141° |
| 2026-05-06 16:17 | 31.48375 | 27.05894 | 37129 ft | 488 kts | 141° |
| 2026-05-06 16:18 | 31.43206 | 27.11050 | 37130 ft | 488 kts | 141° |
| 2026-05-06 16:18 | 31.38035 | 27.16198 | 37129 ft | 488 kts | 141° |
| 2026-05-06 16:19 | 31.32864 | 27.21340 | 37130 ft | 488 kts | 141° |
| 2026-05-06 16:19 | 31.27618 | 27.26377 | 37131 ft | 488 kts | 143° |
| 2026-05-06 16:20 | 31.22272 | 27.31261 | 37130 ft | 488 kts | 144° |
| 2026-05-06 16:20 | 31.16927 | 27.36138 | 37128 ft | 488 kts | 144° |
| 2026-05-06 16:21 | 31.11595 | 27.41036 | 37131 ft | 488 kts | 143° |
| 2026-05-06 16:21 | 31.06264 | 27.45942 | 37127 ft | 488 kts | 143° |
| 2026-05-06 16:22 | 31.00968 | 27.50813 | 37127 ft | 488 kts | 143° |
| 2026-05-06 16:22 | 30.95632 | 27.55709 | 37132 ft | 488 kts | 144° |
| 2026-05-06 16:23 | 30.90294 | 27.60603 | 37130 ft | 488 kts | 144° |
| 2026-05-06 16:23 | 30.84952 | 27.65492 | 37131 ft | 488 kts | 144° |
| 2026-05-06 16:24 | 30.79606 | 27.70377 | 37129 ft | 489 kts | 144° |
| 2026-05-06 16:24 | 30.74257 | 27.75256 | 37131 ft | 489 kts | 144° |
| 2026-05-06 16:25 | 30.68904 | 27.80134 | 37131 ft | 489 kts | 144° |
| 2026-05-06 16:25 | 30.63549 | 27.85005 | 37127 ft | 489 kts | 144° |
| 2026-05-06 16:26 | 30.58190 | 27.89875 | 37128 ft | 489 kts | 144° |
| 2026-05-06 16:26 | 30.52832 | 27.94738 | 37129 ft | 489 kts | 144° |
| 2026-05-06 16:27 | 30.47467 | 27.99600 | 37130 ft | 489 kts | 144° |
| 2026-05-06 16:27 | 30.42103 | 28.04449 | 37128 ft | 489 kts | 144° |
| 2026-05-06 16:28 | 30.36736 | 28.09294 | 37132 ft | 489 kts | 144° |
| 2026-05-06 16:28 | 30.31368 | 28.14139 | 37127 ft | 490 kts | 144° |
| 2026-05-06 16:29 | 30.25994 | 28.18982 | 37130 ft | 489 kts | 144° |
| 2026-05-06 16:29 | 30.20618 | 28.23812 | 37128 ft | 489 kts | 144° |
| 2026-05-06 16:30 | 30.16138 | 28.27835 | 37120 ft | 490 kts | 144° |
| 2026-05-06 16:30 | 30.09877 | 28.33454 | 37116 ft | 490 kts | 144° |
| 2026-05-06 16:31 | 30.04485 | 28.38283 | 37127 ft | 490 kts | 144° |
| 2026-05-06 16:31 | 29.99099 | 28.43099 | 37127 ft | 490 kts | 144° |
| 2026-05-06 16:32 | 29.93713 | 28.47910 | 37129 ft | 490 kts | 144° |
| 2026-05-06 16:32 | 29.88324 | 28.52717 | 37123 ft | 490 kts | 144° |
| 2026-05-06 16:33 | 29.82930 | 28.57521 | 37119 ft | 490 kts | 144° |
| 2026-05-06 16:34 | 29.74835 | 28.64719 | 37121 ft | 490 kts | 145° |
| 2026-05-06 16:34 | 29.69430 | 28.69516 | 37122 ft | 490 kts | 145° |
| 2026-05-06 16:35 | 29.64237 | 28.74613 | 37119 ft | 493 kts | 136° |
| 2026-05-06 16:35 | 29.59839 | 28.80683 | 37125 ft | 495 kts | 129° |
| 2026-05-06 16:36 | 29.55682 | 28.87000 | 37117 ft | 496 kts | 129° |
| 2026-05-06 16:36 | 29.51479 | 28.93287 | 37111 ft | 496 kts | 130° |
| 2026-05-06 16:37 | 29.47250 | 28.99546 | 37117 ft | 496 kts | 130° |
| 2026-05-06 16:37 | 29.42950 | 29.05740 | 37115 ft | 495 kts | 134° |
| 2026-05-06 16:38 | 29.37943 | 29.11089 | 37100 ft | 491 kts | 146° |
| 2026-05-06 16:38 | 29.32463 | 29.15751 | 37084 ft | 490 kts | 146° |
| 2026-05-06 16:39 | 29.26985 | 29.20415 | 37084 ft | 491 kts | 146° |
| 2026-05-06 16:39 | 29.21526 | 29.25122 | 37083 ft | 491 kts | 146° |
| 2026-05-06 16:40 | 29.16060 | 29.29845 | 37083 ft | 492 kts | 146° |
| 2026-05-06 16:40 | 29.10619 | 29.34517 | 37082 ft | 492 kts | 146° |
| 2026-05-06 16:41 | 29.05091 | 29.39127 | 37084 ft | 492 kts | 147° |
| 2026-05-06 16:41 | 28.99543 | 29.43710 | 37081 ft | 492 kts | 147° |
| 2026-05-06 16:42 | 28.94000 | 29.48296 | 37078 ft | 492 kts | 147° |
| 2026-05-06 16:42 | 28.88458 | 29.52889 | 37071 ft | 491 kts | 147° |
| 2026-05-06 16:43 | 28.82927 | 29.57471 | 37074 ft | 491 kts | 147° |
| 2026-05-06 16:43 | 28.77397 | 29.62046 | 37074 ft | 491 kts | 147° |
| 2026-05-06 16:44 | 28.71863 | 29.66618 | 37075 ft | 491 kts | 147° |
| 2026-05-06 16:44 | 28.66328 | 29.71183 | 37074 ft | 491 kts | 147° |
| 2026-05-06 16:45 | 28.60786 | 29.75749 | 37074 ft | 492 kts | 147° |
| 2026-05-06 16:45 | 28.55239 | 29.80311 | 37074 ft | 492 kts | 147° |
| 2026-05-06 16:46 | 28.49692 | 29.84869 | 37076 ft | 492 kts | 147° |
| 2026-05-06 16:46 | 28.44143 | 29.89425 | 37073 ft | 492 kts | 147° |
| 2026-05-06 16:47 | 28.38592 | 29.93973 | 37074 ft | 492 kts | 147° |
| 2026-05-06 16:47 | 28.33030 | 29.98521 | 37075 ft | 493 kts | 147° |
| 2026-05-06 16:48 | 28.27465 | 30.03070 | 37074 ft | 493 kts | 147° |
| 2026-05-06 16:48 | 28.21898 | 30.07613 | 37073 ft | 493 kts | 147° |
| 2026-05-06 16:49 | 28.16322 | 30.12158 | 37075 ft | 493 kts | 147° |
| 2026-05-06 16:49 | 28.10751 | 30.16695 | 37074 ft | 493 kts | 147° |
| 2026-05-06 16:50 | 28.05170 | 30.21231 | 37075 ft | 493 kts | 147° |
| 2026-05-06 16:50 | 28.00541 | 30.24990 | 37074 ft | 493 kts | 147° |
| 2026-05-06 16:51 | 27.94967 | 30.29512 | 37073 ft | 493 kts | 147° |
| 2026-05-06 16:51 | 27.89400 | 30.34022 | 37074 ft | 492 kts | 147° |
| 2026-05-06 16:52 | 27.83822 | 30.38532 | 37075 ft | 492 kts | 147° |
| 2026-05-06 16:52 | 27.78260 | 30.43025 | 37073 ft | 491 kts | 147° |
| 2026-05-06 16:53 | 27.72696 | 30.47515 | 37072 ft | 492 kts | 147° |
| 2026-05-06 16:53 | 27.67161 | 30.51973 | 37074 ft | 492 kts | 147° |
| 2026-05-06 16:54 | 27.61589 | 30.56458 | 37075 ft | 492 kts | 147° |
| 2026-05-06 16:54 | 27.56012 | 30.60945 | 37076 ft | 493 kts | 147° |
| 2026-05-06 16:55 | 27.50429 | 30.65427 | 37074 ft | 493 kts | 147° |
| 2026-05-06 16:55 | 27.44832 | 30.69911 | 37078 ft | 493 kts | 147° |
| 2026-05-06 16:56 | 27.39238 | 30.74391 | 37070 ft | 493 kts | 147° |
| 2026-05-06 16:56 | 27.33647 | 30.78864 | 37075 ft | 492 kts | 147° |
| 2026-05-06 16:57 | 27.28065 | 30.83324 | 37073 ft | 492 kts | 147° |
| 2026-05-06 16:57 | 27.22484 | 30.87777 | 37074 ft | 492 kts | 148° |
| 2026-05-06 16:58 | 27.16907 | 30.92223 | 37075 ft | 492 kts | 148° |
| 2026-05-06 16:58 | 27.11315 | 30.96669 | 37074 ft | 492 kts | 148° |
| 2026-05-06 16:59 | 27.05740 | 31.01132 | 37072 ft | 492 kts | 145° |
| 2026-05-06 16:59 | 27.00696 | 31.06367 | 37073 ft | 497 kts | 133° |
| 2026-05-06 17:00 | 26.96320 | 31.12396 | 37079 ft | 498 kts | 131° |
| 2026-05-06 17:00 | 26.91988 | 31.18466 | 37074 ft | 499 kts | 131° |
| 2026-05-06 17:01 | 26.87626 | 31.24515 | 37066 ft | 499 kts | 131° |
| 2026-05-06 17:01 | 26.83237 | 31.30549 | 37060 ft | 500 kts | 131° |
| 2026-05-06 17:02 | 26.78843 | 31.36575 | 37030 ft | 500 kts | 131° |
| 2026-05-06 17:02 | 26.74443 | 31.42604 | 37016 ft | 500 kts | 131° |
| 2026-05-06 17:03 | 26.70043 | 31.48624 | 36998 ft | 499 kts | 132° |
| 2026-05-06 17:03 | 26.65638 | 31.54640 | 36975 ft | 499 kts | 132° |
| 2026-05-06 17:04 | 26.61275 | 31.60595 | 36958 ft | 499 kts | 132° |
| 2026-05-06 17:04 | 26.56876 | 31.66593 | 36940 ft | 498 kts | 132° |
| 2026-05-06 17:05 | 26.52478 | 31.72581 | 36916 ft | 498 kts | 132° |
| 2026-05-06 17:05 | 26.48085 | 31.78551 | 36927 ft | 498 kts | 132° |
| 2026-05-06 17:06 | 26.43688 | 31.84517 | 36929 ft | 498 kts | 132° |
| 2026-05-06 17:06 | 26.39284 | 31.90490 | 36910 ft | 498 kts | 132° |
| 2026-05-06 17:07 | 26.34873 | 31.96465 | 36909 ft | 498 kts | 132° |
| 2026-05-06 17:07 | 26.30460 | 32.02430 | 36913 ft | 499 kts | 132° |
| 2026-05-06 17:08 | 26.26041 | 32.08397 | 36913 ft | 499 kts | 132° |
| 2026-05-06 17:08 | 26.21648 | 32.14322 | 36912 ft | 499 kts | 132° |
| 2026-05-06 17:09 | 26.17195 | 32.20317 | 36910 ft | 499 kts | 132° |
| 2026-05-06 17:09 | 26.12794 | 32.26235 | 36909 ft | 500 kts | 132° |
| 2026-05-06 17:10 | 26.08361 | 32.32191 | 36913 ft | 500 kts | 133° |
| 2026-05-06 17:10 | 26.03927 | 32.38140 | 36927 ft | 500 kts | 133° |
| 2026-05-06 17:11 | 25.99487 | 32.44091 | 36913 ft | 499 kts | 133° |
| 2026-05-06 17:11 | 25.95050 | 32.50027 | 36911 ft | 499 kts | 133° |
| 2026-05-06 17:12 | 25.90616 | 32.55951 | 36915 ft | 499 kts | 133° |
| 2026-05-06 17:12 | 25.86176 | 32.61879 | 36929 ft | 499 kts | 133° |
| 2026-05-06 17:13 | 25.81734 | 32.67802 | 36904 ft | 499 kts | 133° |
| 2026-05-06 17:13 | 25.77296 | 32.73713 | 36918 ft | 498 kts | 133° |
| 2026-05-06 17:14 | 25.73069 | 32.79797 | 36912 ft | 500 kts | 126° |
| 2026-05-06 17:14 | 25.69254 | 32.86260 | 36911 ft | 501 kts | 126° |
| 2026-05-06 17:15 | 25.65448 | 32.92736 | 36907 ft | 501 kts | 126° |
| 2026-05-06 17:15 | 25.61635 | 32.99143 | 36929 ft | 501 kts | 126° |
| 2026-05-06 17:16 | 25.57783 | 33.05584 | 36917 ft | 501 kts | 126° |
| 2026-05-06 17:16 | 25.53926 | 33.12011 | 36909 ft | 500 kts | 126° |
| 2026-05-06 17:17 | 25.50073 | 33.18440 | 36908 ft | 500 kts | 127° |
| 2026-05-06 17:17 | 25.46224 | 33.24855 | 36915 ft | 500 kts | 127° |
| 2026-05-06 17:18 | 25.42374 | 33.31257 | 36912 ft | 500 kts | 127° |
| 2026-05-06 17:18 | 25.38514 | 33.37665 | 36928 ft | 500 kts | 127° |
| 2026-05-06 17:19 | 25.34652 | 33.44074 | 36913 ft | 500 kts | 127° |
| 2026-05-06 17:19 | 25.30789 | 33.50474 | 36934 ft | 500 kts | 127° |
| 2026-05-06 17:20 | 25.26921 | 33.56862 | 36928 ft | 500 kts | 127° |
| 2026-05-06 17:20 | 25.23051 | 33.63245 | 36929 ft | 500 kts | 127° |
| 2026-05-06 17:21 | 25.19182 | 33.69622 | 36934 ft | 500 kts | 127° |
| 2026-05-06 17:21 | 25.15312 | 33.75992 | 36930 ft | 500 kts | 127° |
| 2026-05-06 17:22 | 25.11435 | 33.82365 | 36927 ft | 500 kts | 127° |
| 2026-05-06 17:22 | 25.07549 | 33.88740 | 36931 ft | 500 kts | 127° |
| 2026-05-06 17:23 | 25.03666 | 33.95107 | 36931 ft | 500 kts | 127° |
| 2026-05-06 17:23 | 24.99790 | 34.01455 | 36927 ft | 499 kts | 127° |
| 2026-05-06 17:24 | 24.95927 | 34.07771 | 36930 ft | 499 kts | 127° |
| 2026-05-06 17:24 | 24.92047 | 34.14108 | 36935 ft | 498 kts | 127° |
| 2026-05-06 17:25 | 24.88167 | 34.20437 | 36935 ft | 498 kts | 127° |
| 2026-05-06 17:25 | 24.84289 | 34.26752 | 36937 ft | 498 kts | 127° |
| 2026-05-06 17:26 | 24.80406 | 34.33067 | 36909 ft | 498 kts | 127° |
| 2026-05-06 17:26 | 24.76517 | 34.39384 | 36933 ft | 498 kts | 127° |
| 2026-05-06 17:27 | 24.72629 | 34.45691 | 36929 ft | 498 kts | 127° |
| 2026-05-06 17:27 | 24.68737 | 34.51997 | 36933 ft | 498 kts | 127° |
| 2026-05-06 17:28 | 24.64840 | 34.58302 | 36929 ft | 498 kts | 128° |
| 2026-05-06 17:28 | 24.60946 | 34.64595 | 36928 ft | 498 kts | 128° |
| 2026-05-06 17:29 | 24.57074 | 34.70843 | 36907 ft | 498 kts | 128° |
| 2026-05-06 17:29 | 24.53179 | 34.77126 | 36929 ft | 497 kts | 128° |
| 2026-05-06 17:30 | 24.49280 | 34.83401 | 36905 ft | 497 kts | 128° |
| 2026-05-06 17:30 | 24.45377 | 34.89673 | 36927 ft | 497 kts | 128° |
| 2026-05-06 17:31 | 24.41473 | 34.95942 | 36934 ft | 497 kts | 128° |
| 2026-05-06 17:31 | 24.37561 | 35.02214 | 36906 ft | 498 kts | 128° |
| 2026-05-06 17:32 | 24.33645 | 35.08482 | 36908 ft | 498 kts | 128° |
| 2026-05-06 17:32 | 24.30391 | 35.13689 | 36905 ft | 498 kts | 128° |
| 2026-05-06 17:33 | 24.26472 | 35.19953 | 36905 ft | 499 kts | 128° |
| 2026-05-06 17:33 | 24.22540 | 35.26228 | 36907 ft | 499 kts | 128° |
| 2026-05-06 17:34 | 24.18604 | 35.32500 | 36902 ft | 498 kts | 128° |
| 2026-05-06 17:34 | 24.14672 | 35.38759 | 36902 ft | 499 kts | 128° |
| 2026-05-06 17:35 | 24.10745 | 35.45007 | 36896 ft | 498 kts | 128° |
| 2026-05-06 17:35 | 24.06812 | 35.51252 | 36911 ft | 498 kts | 128° |
| 2026-05-06 17:36 | 24.00907 | 35.60612 | 36906 ft | 498 kts | 128° |
| 2026-05-06 17:36 | 23.97017 | 35.66770 | 36904 ft | 498 kts | 128° |
| 2026-05-06 17:37 | 23.93099 | 35.72961 | 36898 ft | 499 kts | 129° |
| 2026-05-06 17:37 | 23.89149 | 35.79199 | 36897 ft | 499 kts | 129° |
| 2026-05-06 17:38 | 23.85198 | 35.85437 | 36899 ft | 499 kts | 129° |
| 2026-05-06 17:38 | 23.81279 | 35.91610 | 36897 ft | 499 kts | 129° |
| 2026-05-06 17:39 | 23.77328 | 35.97826 | 36889 ft | 499 kts | 129° |
| 2026-05-06 17:39 | 23.73367 | 36.04053 | 36858 ft | 499 kts | 129° |
| 2026-05-06 17:40 | 23.69405 | 36.10277 | 36850 ft | 499 kts | 129° |
| 2026-05-06 17:40 | 23.65438 | 36.16496 | 36846 ft | 499 kts | 129° |
| 2026-05-06 17:41 | 23.61471 | 36.22708 | 36842 ft | 499 kts | 129° |
| 2026-05-06 17:41 | 23.57499 | 36.28920 | 36845 ft | 498 kts | 129° |
| 2026-05-06 17:42 | 23.53537 | 36.35112 | 36835 ft | 498 kts | 129° |
| 2026-05-06 17:42 | 23.49574 | 36.41293 | 36831 ft | 497 kts | 129° |
| 2026-05-06 17:43 | 23.45608 | 36.47474 | 36834 ft | 497 kts | 129° |
| 2026-05-06 17:43 | 23.41644 | 36.53647 | 36812 ft | 497 kts | 129° |
| 2026-05-06 17:44 | 23.37702 | 36.59775 | 36815 ft | 497 kts | 129° |
| 2026-05-06 17:44 | 23.33731 | 36.65942 | 36818 ft | 497 kts | 129° |
| 2026-05-06 17:45 | 23.29757 | 36.72105 | 36813 ft | 498 kts | 129° |
| 2026-05-06 17:45 | 23.25783 | 36.78265 | 36815 ft | 498 kts | 129° |
| 2026-05-06 17:46 | 23.21803 | 36.84420 | 36814 ft | 498 kts | 129° |
| 2026-05-06 17:46 | 23.17814 | 36.90585 | 36817 ft | 498 kts | 129° |
| 2026-05-06 17:47 | 23.13829 | 36.96737 | 36805 ft | 497 kts | 129° |
| 2026-05-06 17:47 | 23.09850 | 37.02875 | 36804 ft | 497 kts | 129° |
| 2026-05-06 17:48 | 23.05859 | 37.09022 | 36805 ft | 497 kts | 129° |
| 2026-05-06 17:48 | 23.01882 | 37.15138 | 36806 ft | 497 kts | 129° |
| 2026-05-06 17:49 | 22.97876 | 37.21247 | 36808 ft | 496 kts | 129° |
| 2026-05-06 17:49 | 22.93864 | 37.27340 | 36806 ft | 496 kts | 129° |
| 2026-05-06 17:50 | 22.89845 | 37.33445 | 36809 ft | 496 kts | 129° |
| 2026-05-06 17:50 | 22.85861 | 37.39494 | 36808 ft | 496 kts | 129° |
| 2026-05-06 17:51 | 22.81841 | 37.45590 | 36805 ft | 496 kts | 129° |
| 2026-05-06 17:51 | 22.77825 | 37.51677 | 36802 ft | 496 kts | 129° |
| 2026-05-06 17:52 | 22.73812 | 37.57757 | 36808 ft | 496 kts | 129° |
| 2026-05-06 17:52 | 22.69812 | 37.63852 | 36810 ft | 496 kts | 129° |
| 2026-05-06 17:53 | 22.65827 | 37.69938 | 36816 ft | 495 kts | 129° |
| 2026-05-06 17:53 | 22.61837 | 37.76023 | 36718 ft | 497 kts | 129° |
| 2026-05-06 17:54 | 22.59809 | 37.79108 | 35901 ft | 507 kts | 129° |
| 2026-05-06 17:54 | 22.57771 | 37.82210 | 35142 ft | 505 kts | 129° |
| 2026-05-06 17:54 | 22.55734 | 37.85311 | 34281 ft | 506 kts | 129° |
| 2026-05-06 17:54 | 22.53692 | 37.88423 | 33370 ft | 507 kts | 129° |
| 2026-05-06 17:55 | 22.51644 | 37.91540 | 32389 ft | 510 kts | 129° |
| 2026-05-06 17:55 | 22.49580 | 37.94676 | 31384 ft | 512 kts | 128° |
| 2026-05-06 17:55 | 22.47513 | 37.97815 | 30390 ft | 513 kts | 128° |
| 2026-05-06 17:55 | 22.45448 | 38.00950 | 29715 ft | 507 kts | 128° |
| 2026-05-06 17:56 | 22.43411 | 38.04043 | 29027 ft | 502 kts | 128° |
| 2026-05-06 17:56 | 22.41396 | 38.07101 | 28355 ft | 498 kts | 128° |
| 2026-05-06 17:56 | 22.39392 | 38.10139 | 27697 ft | 493 kts | 128° |
| 2026-05-06 17:56 | 22.37410 | 38.13141 | 27047 ft | 488 kts | 128° |
| 2026-05-06 17:57 | 22.35446 | 38.16113 | 26398 ft | 484 kts | 128° |
| 2026-05-06 17:57 | 22.33499 | 38.19058 | 25762 ft | 480 kts | 128° |
| 2026-05-06 17:57 | 22.31567 | 38.21979 | 25137 ft | 476 kts | 128° |
| 2026-05-06 17:57 | 22.29651 | 38.24873 | 24502 ft | 472 kts | 128° |
| 2026-05-06 17:58 | 22.27751 | 38.27734 | 23863 ft | 467 kts | 128° |
| 2026-05-06 17:58 | 22.25860 | 38.30576 | 23237 ft | 463 kts | 128° |
| 2026-05-06 17:58 | 22.23987 | 38.33390 | 22622 ft | 459 kts | 128° |
| 2026-05-06 17:58 | 22.22130 | 38.36179 | 22012 ft | 455 kts | 128° |
| 2026-05-06 17:59 | 22.20291 | 38.38933 | 21408 ft | 451 kts | 128° |
| 2026-05-06 17:59 | 22.18412 | 38.41618 | 20808 ft | 446 kts | 129° |
| 2026-05-06 17:59 | 22.16512 | 38.44239 | 20215 ft | 442 kts | 130° |
| 2026-05-06 17:59 | 22.14618 | 38.46831 | 19626 ft | 438 kts | 130° |
| 2026-05-06 18:00 | 22.12783 | 38.49352 | 19381 ft | 425 kts | 129° |
| 2026-05-06 18:00 | 22.10992 | 38.51829 | 19206 ft | 413 kts | 129° |
| 2026-05-06 18:00 | 22.09253 | 38.54242 | 19024 ft | 401 kts | 129° |
| 2026-05-06 18:00 | 22.07566 | 38.56586 | 18858 ft | 390 kts | 129° |
| 2026-05-06 18:01 | 22.05926 | 38.58865 | 18686 ft | 380 kts | 129° |
| 2026-05-06 18:01 | 22.04326 | 38.61088 | 18538 ft | 370 kts | 129° |
| 2026-05-06 18:01 | 22.02767 | 38.63253 | 18322 ft | 363 kts | 129° |
| 2026-05-06 18:01 | 22.01241 | 38.65380 | 18106 ft | 356 kts | 129° |
| 2026-05-06 18:02 | 21.99743 | 38.67475 | 17866 ft | 349 kts | 129° |
| 2026-05-06 18:02 | 21.98272 | 38.69533 | 17461 ft | 344 kts | 129° |
| 2026-05-06 18:02 | 21.96820 | 38.71566 | 16845 ft | 337 kts | 129° |
| 2026-05-06 18:02 | 21.95416 | 38.73530 | 16445 ft | 325 kts | 129° |
| 2026-05-06 18:03 | 21.94062 | 38.75424 | 16123 ft | 311 kts | 129° |
| 2026-05-06 18:03 | 21.92763 | 38.77238 | 15889 ft | 304 kts | 129° |
| 2026-05-06 18:03 | 21.91465 | 38.79049 | 15578 ft | 307 kts | 129° |
| 2026-05-06 18:03 | 21.90147 | 38.80885 | 15262 ft | 315 kts | 129° |
| 2026-05-06 18:04 | 21.88790 | 38.82777 | 14915 ft | 321 kts | 129° |
| 2026-05-06 18:04 | 21.87424 | 38.84682 | 14554 ft | 321 kts | 129° |
| 2026-05-06 18:04 | 21.86063 | 38.86581 | 14193 ft | 319 kts | 129° |
| 2026-05-06 18:04 | 21.84709 | 38.88468 | 13886 ft | 316 kts | 129° |
| 2026-05-06 18:05 | 21.83388 | 38.90310 | 13754 ft | 306 kts | 129° |
| 2026-05-06 18:05 | 21.82107 | 38.92097 | 13611 ft | 297 kts | 129° |
| 2026-05-06 18:05 | 21.80861 | 38.93832 | 13476 ft | 288 kts | 129° |
| 2026-05-06 18:05 | 21.79669 | 38.95490 | 13352 ft | 279 kts | 129° |
| 2026-05-06 18:06 | 21.78501 | 38.97116 | 13164 ft | 272 kts | 129° |
| 2026-05-06 18:06 | 21.77522 | 38.98828 | 12786 ft | 268 kts | 108° |
| 2026-05-06 18:06 | 21.77123 | 39.00766 | 12419 ft | 264 kts | 102° |
| 2026-05-06 18:06 | 21.76773 | 39.02718 | 11993 ft | 268 kts | 102° |
| 2026-05-06 18:07 | 21.76408 | 39.04698 | 11562 ft | 271 kts | 102° |
| 2026-05-06 18:07 | 21.76035 | 39.06701 | 11124 ft | 275 kts | 102° |
| 2026-05-06 18:07 | 21.75655 | 39.08715 | 10748 ft | 276 kts | 102° |
| 2026-05-06 18:07 | 21.75272 | 39.10734 | 10436 ft | 274 kts | 102° |
| 2026-05-06 18:08 | 21.74894 | 39.12719 | 10237 ft | 267 kts | 102° |
| 2026-05-06 18:08 | 21.74523 | 39.14654 | 10061 ft | 260 kts | 102° |
| 2026-05-06 18:08 | 21.74163 | 39.16535 | 9864 ft | 253 kts | 102° |
| 2026-05-06 18:08 | 21.73808 | 39.18378 | 9565 ft | 251 kts | 102° |
| 2026-05-06 18:09 | 21.73453 | 39.20216 | 9220 ft | 251 kts | 102° |
| 2026-05-06 18:09 | 21.73097 | 39.22052 | 8879 ft | 251 kts | 102° |
| 2026-05-06 18:09 | 21.72731 | 39.23877 | 8546 ft | 248 kts | 108° |
| 2026-05-06 18:09 | 21.71863 | 39.25435 | 8090 ft | 247 kts | 142° |
| 2026-05-06 18:10 | 21.70368 | 39.26293 | 7742 ft | 243 kts | 160° |
| 2026-05-06 18:10 | 21.68800 | 39.26904 | 7291 ft | 237 kts | 160° |
| 2026-05-06 18:10 | 21.67274 | 39.27501 | 6658 ft | 237 kts | 160° |
| 2026-05-06 18:10 | 21.65710 | 39.28116 | 6028 ft | 236 kts | 160° |
| 2026-05-06 18:11 | 21.64190 | 39.28714 | 5491 ft | 237 kts | 160° |
| 2026-05-06 18:11 | 21.63141 | 39.29126 | 5209 ft | 240 kts | 160° |
| 2026-05-06 18:11 | 21.61041 | 39.29950 | 4680 ft | 244 kts | 160° |
| 2026-05-06 18:11 | 21.59461 | 39.30567 | 4229 ft | 236 kts | 160° |
| 2026-05-06 18:12 | 21.57938 | 39.31162 | 3876 ft | 232 kts | 160° |
| 2026-05-06 18:12 | 21.56422 | 39.31753 | 3530 ft | 232 kts | 161° |
| 2026-05-06 18:12 | 21.54865 | 39.32013 | 3153 ft | 227 kts | 189° |
| 2026-05-06 18:12 | 21.53485 | 39.31311 | 2932 ft | 218 kts | 223° |
| 2026-05-06 18:13 | 21.52587 | 39.29997 | 2767 ft | 223 kts | 244° |
| 2026-05-06 18:13 | 21.51997 | 39.28435 | 2576 ft | 228 kts | 250° |
| 2026-05-06 18:13 | 21.51486 | 39.26825 | 2364 ft | 225 kts | 258° |
| 2026-05-06 18:13 | 21.51589 | 39.25198 | 2146 ft | 218 kts | 294° |
| 2026-05-06 18:14 | 21.52490 | 39.24064 | 2074 ft | 195 kts | 328° |
| 2026-05-06 18:14 | 21.53667 | 39.23408 | 1997 ft | 183 kts | 332° |
| 2026-05-06 18:14 | 21.54780 | 39.22797 | 1923 ft | 177 kts | 335° |
| 2026-05-06 18:14 | 21.55895 | 39.22307 | 1845 ft | 175 kts | 339° |
| 2026-05-06 18:15 | 21.57037 | 39.21849 | 1793 ft | 175 kts | 340° |
| 2026-05-06 18:15 | 21.58180 | 39.21399 | 1789 ft | 176 kts | 339° |
| 2026-05-06 18:15 | 21.59336 | 39.20939 | 1589 ft | 174 kts | 339° |
| 2026-05-06 18:15 | 21.60419 | 39.20513 | 1365 ft | 156 kts | 340° |
| 2026-05-06 18:16 | 21.61386 | 39.20130 | 1194 ft | 145 kts | 340° |
| 2026-05-06 18:16 | 21.62343 | 39.19753 | 995 ft | 147 kts | 340° |
| 2026-05-06 18:16 | 21.62987 | 39.19498 | 857 ft | 146 kts | 340° |
| 2026-05-06 18:16 | 21.63934 | 39.19127 | 673 ft | 143 kts | 340° |
| 2026-05-06 18:17 | 21.64864 | 39.18757 | 465 ft | 145 kts | 340° |
| 2026-05-06 18:17 | 21.65803 | 39.18383 | 262 ft | 144 kts | 340° |
| 2026-05-06 18:17 | 21.66738 | 39.18012 | 67 ft | 142 kts | 340° |
| 2026-05-06 18:17 | 21.67618 | 39.17665 | 39 ft | 119 kts | 340° |
| 2026-05-06 18:18 | 21.68254 | 39.17416 | 33 ft | 75 kts | 340° |
| 2026-05-06 18:18 | 21.68621 | 39.17272 | 32 ft | 46 kts | 340° |
| 2026-05-06 18:18 | 21.68830 | 39.17138 | 33 ft | 28 kts | 316° |
| 2026-05-06 18:18 | 21.68919 | 39.17030 | 35 ft | 16 kts | 310° |
| 2026-05-06 18:19 | 21.68989 | 39.16940 | 34 ft | 16 kts | 310° |
| 2026-05-06 18:19 | 21.69069 | 39.16863 | 35 ft | 16 kts | 329° |
| 2026-05-06 18:19 | 21.69169 | 39.16818 | 34 ft | 14 kts | 339° |
| 2026-05-06 18:19 | 21.69245 | 39.16758 | 31 ft | 15 kts | 282° |
| 2026-05-06 18:20 | 21.69183 | 39.16716 | 32 ft | 13 kts | 166° |
| 2026-05-06 18:20 | 21.69098 | 39.16747 | 35 ft | 13 kts | 160° |
| 2026-05-06 18:20 | 21.68988 | 39.16790 | 36 ft | 22 kts | 160° |
| 2026-05-06 18:20 | 21.68839 | 39.16850 | 35 ft | 23 kts | 160° |
| 2026-05-06 18:21 | 21.68688 | 39.16908 | 35 ft | 23 kts | 160° |
| 2026-05-06 18:21 | 21.68538 | 39.16967 | 33 ft | 23 kts | 160° |
| 2026-05-06 18:21 | 21.68395 | 39.17024 | 34 ft | 19 kts | 159° |
| 2026-05-06 18:21 | 21.68268 | 39.17074 | 34 ft | 19 kts | 160° |
| 2026-05-06 18:22 | 21.68141 | 39.17124 | 34 ft | 19 kts | 160° |
| 2026-05-06 18:22 | 21.68019 | 39.17170 | 35 ft | 16 kts | 170° |
| 2026-05-06 18:22 | 21.67945 | 39.17096 | 35 ft | 16 kts | 249° |
| 2026-05-06 18:22 | 21.67906 | 39.16984 | 34 ft | 17 kts | 249° |
| 2026-05-06 18:23 | 21.67863 | 39.16868 | 33 ft | 17 kts | 249° |
| 2026-05-06 18:23 | 21.67787 | 39.16795 | 35 ft | 17 kts | 174° |
| 2026-05-06 18:23 | 21.67678 | 39.16835 | 35 ft | 17 kts | 160° |
| 2026-05-06 18:23 | 21.67569 | 39.16877 | 35 ft | 17 kts | 160° |
| 2026-05-06 18:24 | 21.67460 | 39.16920 | 35 ft | 17 kts | 160° |
| 2026-05-06 18:24 | 21.67361 | 39.16977 | 35 ft | 17 kts | 138° |
| 2026-05-06 18:24 | 21.67270 | 39.16984 | 35 ft | 14 kts | 226° |
| 2026-05-06 18:24 | 21.67230 | 39.16907 | 35 ft | 2 kts | 251° |
| 2026-05-06 18:25 | 21.67228 | 39.16902 | 35 ft | 4 kts | 247° |
| 2026-05-06 18:25 | 21.67174 | 39.16882 | 35 ft | 10 kts | 171° |
| 2026-05-06 18:25 | 21.67130 | 39.16893 | 35 ft | 1 kts | 167° |
| 2026-05-06 18:25 | 21.67128 | 39.16893 | 35 ft | 0 kts | 167° |